sensor_id;sensor_type;location;lat;lon;timestamp;P1;durP1;ratioP1;P2;durP2;ratioP2
41233;SDS011;26968;42.686;23.352;2022-10-16T00:00:36;25.50;;;13.93;;
41233;SDS011;26968;42.686;23.352;2022-10-16T00:03:04;18.45;;;12.35;;
41233;SDS011;26968;42.686;23.352;2022-10-16T00:05:30;23.38;;;14.55;;
41233;SDS011;26968;42.686;23.352;2022-10-16T00:07:55;23.23;;;13.88;;
41233;SDS011;26968;42.686;23.352;2022-10-16T00:10:21;20.60;;;13.32;;
41233;SDS011;26968;42.686;23.352;2022-10-16T00:12:47;22.15;;;14.10;;
41233;SDS011;26968;42.686;23.352;2022-10-16T00:15:12;22.17;;;13.15;;
41233;SDS011;26968;42.686;23.352;2022-10-16T00:17:38;25.63;;;12.95;;
41233;SDS011;26968;42.686;23.352;2022-10-16T00:20:04;27.25;;;13.00;;
41233;SDS011;26968;42.686;23.352;2022-10-16T00:22:30;23.05;;;12.55;;
41233;SDS011;26968;42.686;23.352;2022-10-16T00:24:55;22.35;;;13.10;;
41233;SDS011;26968;42.686;23.352;2022-10-16T00:27:20;22.80;;;12.77;;
41233;SDS011;26968;42.686;23.352;2022-10-16T00:29:49;21.33;;;12.52;;
41233;SDS011;26968;42.686;23.352;2022-10-16T00:32:18;21.23;;;12.98;;
41233;SDS011;26968;42.686;23.352;2022-10-16T00:34:44;31.25;;;14.20;;
41233;SDS011;26968;42.686;23.352;2022-10-16T00:37:10;29.58;;;12.95;;
41233;SDS011;26968;42.686;23.352;2022-10-16T00:39:36;27.70;;;12.85;;
41233;SDS011;26968;42.686;23.352;2022-10-16T00:42:01;22.23;;;13.27;;
41233;SDS011;26968;42.686;23.352;2022-10-16T00:44:44;26.02;;;12.45;;
41233;SDS011;26968;42.686;23.352;2022-10-16T00:47:10;29.33;;;12.23;;
41233;SDS011;26968;42.686;23.352;2022-10-16T00:49:44;24.42;;;13.02;;
41233;SDS011;26968;42.686;23.352;2022-10-16T00:52:11;26.65;;;11.20;;
41233;SDS011;26968;42.686;23.352;2022-10-16T00:54:38;19.42;;;12.38;;
41233;SDS011;26968;42.686;23.352;2022-10-16T00:57:04;21.30;;;11.75;;
41233;SDS011;26968;42.686;23.352;2022-10-16T00:59:32;22.90;;;12.23;;
41233;SDS011;26968;42.686;23.352;2022-10-16T01:02:02;28.03;;;12.20;;
41233;SDS011;26968;42.686;23.352;2022-10-16T01:04:30;24.90;;;12.20;;
41233;SDS011;26968;42.686;23.352;2022-10-16T01:17:18;22.02;;;11.52;;
41233;SDS011;26968;42.686;23.352;2022-10-16T01:20:09;21.15;;;12.90;;
41233;SDS011;26968;42.686;23.352;2022-10-16T01:22:43;28.60;;;11.88;;
41233;SDS011;26968;42.686;23.352;2022-10-16T01:25:22;24.33;;;12.10;;
41233;SDS011;26968;42.686;23.352;2022-10-16T01:27:58;21.60;;;11.55;;
41233;SDS011;26968;42.686;23.352;2022-10-16T01:30:27;25.50;;;12.30;;
41233;SDS011;26968;42.686;23.352;2022-10-16T01:33:08;25.95;;;12.57;;
41233;SDS011;26968;42.686;23.352;2022-10-16T01:35:36;23.05;;;12.63;;
41233;SDS011;26968;42.686;23.352;2022-10-16T01:38:06;25.52;;;12.88;;
41233;SDS011;26968;42.686;23.352;2022-10-16T01:40:38;22.88;;;12.00;;
41233;SDS011;26968;42.686;23.352;2022-10-16T01:43:12;23.50;;;12.45;;
41233;SDS011;26968;42.686;23.352;2022-10-16T01:45:44;24.77;;;12.77;;
41233;SDS011;26968;42.686;23.352;2022-10-16T01:48:11;25.80;;;12.00;;
41233;SDS011;26968;42.686;23.352;2022-10-16T01:50:40;29.38;;;12.88;;
41233;SDS011;26968;42.686;23.352;2022-10-16T01:53:08;25.67;;;12.48;;
41233;SDS011;26968;42.686;23.352;2022-10-16T01:55:38;26.70;;;12.57;;
41233;SDS011;26968;42.686;23.352;2022-10-16T01:58:09;24.63;;;12.85;;
41233;SDS011;26968;42.686;23.352;2022-10-16T02:00:37;20.13;;;11.98;;
41233;SDS011;26968;42.686;23.352;2022-10-16T02:03:04;22.52;;;13.15;;
41233;SDS011;26968;42.686;23.352;2022-10-16T02:05:42;29.33;;;13.10;;
41233;SDS011;26968;42.686;23.352;2022-10-16T02:08:20;20.45;;;11.68;;
41233;SDS011;26968;42.686;23.352;2022-10-16T02:10:49;18.23;;;11.55;;
41233;SDS011;26968;42.686;23.352;2022-10-16T02:13:19;21.60;;;13.57;;
41233;SDS011;26968;42.686;23.352;2022-10-16T02:15:51;23.15;;;12.93;;
41233;SDS011;26968;42.686;23.352;2022-10-16T02:18:17;24.13;;;12.27;;
41233;SDS011;26968;42.686;23.352;2022-10-16T02:20:52;20.15;;;11.73;;
41233;SDS011;26968;42.686;23.352;2022-10-16T02:26:17;22.67;;;11.50;;
41233;SDS011;26968;42.686;23.352;2022-10-16T02:28:53;23.60;;;11.73;;
41233;SDS011;26968;42.686;23.352;2022-10-16T02:31:25;24.23;;;12.48;;
41233;SDS011;26968;42.686;23.352;2022-10-16T02:33:57;23.45;;;12.35;;
41233;SDS011;26968;42.686;23.352;2022-10-16T02:36:25;22.38;;;12.02;;
41233;SDS011;26968;42.686;23.352;2022-10-16T02:38:52;15.77;;;10.18;;
41233;SDS011;26968;42.686;23.352;2022-10-16T02:41:20;19.30;;;11.15;;
41233;SDS011;26968;42.686;23.352;2022-10-16T02:43:46;21.40;;;11.43;;
41233;SDS011;26968;42.686;23.352;2022-10-16T02:46:12;25.20;;;11.52;;
41233;SDS011;26968;42.686;23.352;2022-10-16T02:48:37;19.17;;;11.65;;
41233;SDS011;26968;42.686;23.352;2022-10-16T02:51:04;19.10;;;10.05;;
41233;SDS011;26968;42.686;23.352;2022-10-16T02:53:30;31.08;;;11.30;;
41233;SDS011;26968;42.686;23.352;2022-10-16T02:55:55;23.83;;;11.18;;
41233;SDS011;26968;42.686;23.352;2022-10-16T02:58:21;18.55;;;10.52;;
41233;SDS011;26968;42.686;23.352;2022-10-16T03:00:46;17.13;;;9.88;;
41233;SDS011;26968;42.686;23.352;2022-10-16T03:03:12;24.40;;;11.27;;
41233;SDS011;26968;42.686;23.352;2022-10-16T03:05:37;26.10;;;12.07;;
41233;SDS011;26968;42.686;23.352;2022-10-16T03:08:02;21.15;;;10.25;;
41233;SDS011;26968;42.686;23.352;2022-10-16T03:10:28;23.27;;;10.95;;
41233;SDS011;26968;42.686;23.352;2022-10-16T03:12:53;17.83;;;10.05;;
41233;SDS011;26968;42.686;23.352;2022-10-16T03:15:19;20.42;;;11.35;;
41233;SDS011;26968;42.686;23.352;2022-10-16T03:17:44;19.17;;;8.95;;
41233;SDS011;26968;42.686;23.352;2022-10-16T03:20:10;18.08;;;9.75;;
41233;SDS011;26968;42.686;23.352;2022-10-16T03:22:35;18.75;;;9.50;;
41233;SDS011;26968;42.686;23.352;2022-10-16T03:25:01;20.58;;;9.90;;
41233;SDS011;26968;42.686;23.352;2022-10-16T03:27:26;17.10;;;8.90;;
41233;SDS011;26968;42.686;23.352;2022-10-16T03:29:52;17.38;;;9.40;;
41233;SDS011;26968;42.686;23.352;2022-10-16T03:32:17;18.08;;;10.05;;
41233;SDS011;26968;42.686;23.352;2022-10-16T03:34:45;18.15;;;9.27;;
41233;SDS011;26968;42.686;23.352;2022-10-16T03:37:10;18.27;;;10.23;;
41233;SDS011;26968;42.686;23.352;2022-10-16T03:39:35;22.42;;;10.02;;
41233;SDS011;26968;42.686;23.352;2022-10-16T03:42:01;22.63;;;10.55;;
41233;SDS011;26968;42.686;23.352;2022-10-16T03:44:26;20.15;;;10.73;;
41233;SDS011;26968;42.686;23.352;2022-10-16T03:46:52;21.83;;;9.88;;
41233;SDS011;26968;42.686;23.352;2022-10-16T03:49:17;20.98;;;10.70;;
41233;SDS011;26968;42.686;23.352;2022-10-16T03:51:43;23.20;;;10.75;;
41233;SDS011;26968;42.686;23.352;2022-10-16T03:54:09;24.52;;;10.80;;
41233;SDS011;26968;42.686;23.352;2022-10-16T03:56:35;19.58;;;10.30;;
41233;SDS011;26968;42.686;23.352;2022-10-16T03:59:01;21.52;;;9.43;;
41233;SDS011;26968;42.686;23.352;2022-10-16T04:01:26;14.63;;;9.05;;
41233;SDS011;26968;42.686;23.352;2022-10-16T04:03:51;15.00;;;9.27;;
41233;SDS011;26968;42.686;23.352;2022-10-16T04:06:17;17.25;;;8.93;;
41233;SDS011;26968;42.686;23.352;2022-10-16T04:08:43;22.02;;;10.15;;
41233;SDS011;26968;42.686;23.352;2022-10-16T04:11:09;25.67;;;10.23;;
41233;SDS011;26968;42.686;23.352;2022-10-16T04:13:34;18.55;;;11.07;;
41233;SDS011;26968;42.686;23.352;2022-10-16T04:16:00;26.15;;;12.48;;
41233;SDS011;26968;42.686;23.352;2022-10-16T04:18:25;21.70;;;10.82;;
41233;SDS011;26968;42.686;23.352;2022-10-16T04:20:52;19.45;;;10.73;;
41233;SDS011;26968;42.686;23.352;2022-10-16T04:23:18;21.33;;;9.45;;
41233;SDS011;26968;42.686;23.352;2022-10-16T04:25:43;28.27;;;10.98;;
41233;SDS011;26968;42.686;23.352;2022-10-16T04:28:09;20.30;;;10.57;;
41233;SDS011;26968;42.686;23.352;2022-10-16T04:30:34;20.23;;;9.60;;
41233;SDS011;26968;42.686;23.352;2022-10-16T04:32:59;18.83;;;10.35;;
41233;SDS011;26968;42.686;23.352;2022-10-16T04:35:25;18.52;;;10.52;;
41233;SDS011;26968;42.686;23.352;2022-10-16T04:37:51;21.33;;;10.68;;
41233;SDS011;26968;42.686;23.352;2022-10-16T04:40:16;22.13;;;10.85;;
41233;SDS011;26968;42.686;23.352;2022-10-16T04:42:42;24.17;;;11.55;;
41233;SDS011;26968;42.686;23.352;2022-10-16T04:45:08;23.38;;;10.68;;
41233;SDS011;26968;42.686;23.352;2022-10-16T04:47:33;23.08;;;11.38;;
41233;SDS011;26968;42.686;23.352;2022-10-16T04:49:59;24.92;;;9.90;;
41233;SDS011;26968;42.686;23.352;2022-10-16T04:52:26;18.23;;;9.45;;
41233;SDS011;26968;42.686;23.352;2022-10-16T04:54:51;23.55;;;10.38;;
41233;SDS011;26968;42.686;23.352;2022-10-16T04:57:17;23.90;;;10.90;;
41233;SDS011;26968;42.686;23.352;2022-10-16T04:59:42;20.88;;;10.55;;
41233;SDS011;26968;42.686;23.352;2022-10-16T05:02:08;24.48;;;11.38;;
41233;SDS011;26968;42.686;23.352;2022-10-16T05:04:33;33.85;;;12.15;;
41233;SDS011;26968;42.686;23.352;2022-10-16T05:06:59;23.90;;;12.18;;
41233;SDS011;26968;42.686;23.352;2022-10-16T05:09:24;22.27;;;11.98;;
41233;SDS011;26968;42.686;23.352;2022-10-16T05:11:50;28.20;;;12.20;;
41233;SDS011;26968;42.686;23.352;2022-10-16T05:14:15;29.50;;;11.35;;
41233;SDS011;26968;42.686;23.352;2022-10-16T05:16:41;32.00;;;11.85;;
41233;SDS011;26968;42.686;23.352;2022-10-16T05:19:06;26.83;;;11.77;;
41233;SDS011;26968;42.686;23.352;2022-10-16T05:21:32;28.05;;;11.23;;
41233;SDS011;26968;42.686;23.352;2022-10-16T05:23:57;23.45;;;10.77;;
41233;SDS011;26968;42.686;23.352;2022-10-16T05:26:23;26.95;;;11.40;;
41233;SDS011;26968;42.686;23.352;2022-10-16T05:28:49;23.63;;;11.55;;
41233;SDS011;26968;42.686;23.352;2022-10-16T05:31:15;21.77;;;11.38;;
41233;SDS011;26968;42.686;23.352;2022-10-16T05:33:40;31.48;;;11.88;;
41233;SDS011;26968;42.686;23.352;2022-10-16T05:36:07;29.85;;;11.30;;
41233;SDS011;26968;42.686;23.352;2022-10-16T05:38:34;24.40;;;11.18;;
41233;SDS011;26968;42.686;23.352;2022-10-16T05:41:00;25.25;;;12.18;;
41233;SDS011;26968;42.686;23.352;2022-10-16T05:43:27;22.35;;;11.23;;
41233;SDS011;26968;42.686;23.352;2022-10-16T05:45:54;26.27;;;12.05;;
41233;SDS011;26968;42.686;23.352;2022-10-16T05:48:23;25.70;;;12.35;;
41233;SDS011;26968;42.686;23.352;2022-10-16T05:50:55;33.45;;;11.27;;
41233;SDS011;26968;42.686;23.352;2022-10-16T05:53:34;27.83;;;12.60;;
41233;SDS011;26968;42.686;23.352;2022-10-16T05:56:00;40.65;;;15.18;;
41233;SDS011;26968;42.686;23.352;2022-10-16T05:58:33;29.20;;;13.13;;
41233;SDS011;26968;42.686;23.352;2022-10-16T06:01:10;25.42;;;13.23;;
41233;SDS011;26968;42.686;23.352;2022-10-16T06:03:37;26.25;;;12.20;;
41233;SDS011;26968;42.686;23.352;2022-10-16T06:06:10;21.38;;;11.52;;
41233;SDS011;26968;42.686;23.352;2022-10-16T06:08:41;21.38;;;12.32;;
41233;SDS011;26968;42.686;23.352;2022-10-16T06:11:08;25.77;;;11.98;;
41233;SDS011;26968;42.686;23.352;2022-10-16T06:13:35;19.80;;;12.00;;
41233;SDS011;26968;42.686;23.352;2022-10-16T06:16:01;25.73;;;11.88;;
41233;SDS011;26968;42.686;23.352;2022-10-16T06:18:28;20.92;;;12.18;;
41233;SDS011;26968;42.686;23.352;2022-10-16T06:20:54;30.17;;;11.93;;
41233;SDS011;26968;42.686;23.352;2022-10-16T06:23:21;32.53;;;12.68;;
41233;SDS011;26968;42.686;23.352;2022-10-16T06:25:47;24.70;;;12.55;;
41233;SDS011;26968;42.686;23.352;2022-10-16T06:28:15;27.98;;;13.95;;
41233;SDS011;26968;42.686;23.352;2022-10-16T06:30:41;22.67;;;13.32;;
41233;SDS011;26968;42.686;23.352;2022-10-16T06:33:09;23.63;;;13.60;;
41233;SDS011;26968;42.686;23.352;2022-10-16T06:35:37;29.45;;;14.18;;
41233;SDS011;26968;42.686;23.352;2022-10-16T06:38:03;29.95;;;13.65;;
41233;SDS011;26968;42.686;23.352;2022-10-16T06:40:28;30.33;;;13.15;;
41233;SDS011;26968;42.686;23.352;2022-10-16T06:42:57;19.33;;;12.55;;
41233;SDS011;26968;42.686;23.352;2022-10-16T06:45:22;23.25;;;13.43;;
41233;SDS011;26968;42.686;23.352;2022-10-16T06:47:48;32.65;;;14.88;;
41233;SDS011;26968;42.686;23.352;2022-10-16T06:50:13;22.48;;;13.90;;
41233;SDS011;26968;42.686;23.352;2022-10-16T06:52:39;24.35;;;13.98;;
41233;SDS011;26968;42.686;23.352;2022-10-16T06:55:04;22.73;;;13.43;;
41233;SDS011;26968;42.686;23.352;2022-10-16T06:57:30;25.27;;;13.75;;
41233;SDS011;26968;42.686;23.352;2022-10-16T06:59:56;20.95;;;12.55;;
41233;SDS011;26968;42.686;23.352;2022-10-16T07:02:21;29.20;;;15.48;;
41233;SDS011;26968;42.686;23.352;2022-10-16T07:04:47;23.88;;;13.30;;
41233;SDS011;26968;42.686;23.352;2022-10-16T07:07:12;23.85;;;12.60;;
41233;SDS011;26968;42.686;23.352;2022-10-16T07:09:38;28.77;;;14.13;;
41233;SDS011;26968;42.686;23.352;2022-10-16T07:12:03;19.55;;;13.50;;
41233;SDS011;26968;42.686;23.352;2022-10-16T07:14:29;25.83;;;13.52;;
41233;SDS011;26968;42.686;23.352;2022-10-16T07:16:55;26.67;;;12.88;;
41233;SDS011;26968;42.686;23.352;2022-10-16T07:19:20;22.10;;;12.70;;
41233;SDS011;26968;42.686;23.352;2022-10-16T07:21:46;22.45;;;12.93;;
41233;SDS011;26968;42.686;23.352;2022-10-16T07:24:12;21.33;;;12.13;;
41233;SDS011;26968;42.686;23.352;2022-10-16T07:26:39;16.10;;;11.85;;
41233;SDS011;26968;42.686;23.352;2022-10-16T07:29:12;20.73;;;12.63;;
41233;SDS011;26968;42.686;23.352;2022-10-16T07:31:40;22.23;;;13.60;;
41233;SDS011;26968;42.686;23.352;2022-10-16T07:34:06;26.88;;;12.35;;
41233;SDS011;26968;42.686;23.352;2022-10-16T07:36:31;21.95;;;11.70;;
41233;SDS011;26968;42.686;23.352;2022-10-16T07:38:56;18.23;;;11.27;;
41233;SDS011;26968;42.686;23.352;2022-10-16T07:41:22;19.40;;;11.07;;
41233;SDS011;26968;42.686;23.352;2022-10-16T07:43:48;19.17;;;11.45;;
41233;SDS011;26968;42.686;23.352;2022-10-16T07:46:15;21.35;;;12.35;;
41233;SDS011;26968;42.686;23.352;2022-10-16T07:48:42;20.10;;;11.32;;
41233;SDS011;26968;42.686;23.352;2022-10-16T07:51:11;16.77;;;11.57;;
41233;SDS011;26968;42.686;23.352;2022-10-16T07:53:37;15.90;;;10.55;;
41233;SDS011;26968;42.686;23.352;2022-10-16T07:56:04;17.95;;;9.57;;
41233;SDS011;26968;42.686;23.352;2022-10-16T07:58:31;16.33;;;10.15;;
41233;SDS011;26968;42.686;23.352;2022-10-16T08:00:56;19.30;;;9.75;;
41233;SDS011;26968;42.686;23.352;2022-10-16T08:03:23;16.73;;;10.43;;
41233;SDS011;26968;42.686;23.352;2022-10-16T08:05:49;21.05;;;10.93;;
41233;SDS011;26968;42.686;23.352;2022-10-16T08:08:15;18.85;;;10.90;;
41233;SDS011;26968;42.686;23.352;2022-10-16T08:10:42;20.45;;;9.52;;
41233;SDS011;26968;42.686;23.352;2022-10-16T08:13:08;18.35;;;10.23;;
41233;SDS011;26968;42.686;23.352;2022-10-16T08:15:33;17.33;;;10.77;;
41233;SDS011;26968;42.686;23.352;2022-10-16T08:18:03;17.65;;;11.55;;
41233;SDS011;26968;42.686;23.352;2022-10-16T08:20:30;21.58;;;10.75;;
41233;SDS011;26968;42.686;23.352;2022-10-16T08:22:57;19.60;;;10.60;;
41233;SDS011;26968;42.686;23.352;2022-10-16T08:25:23;26.55;;;9.75;;
41233;SDS011;26968;42.686;23.352;2022-10-16T08:27:49;16.33;;;9.73;;
41233;SDS011;26968;42.686;23.352;2022-10-16T08:30:16;24.05;;;13.40;;
41233;SDS011;26968;42.686;23.352;2022-10-16T08:32:45;21.27;;;12.48;;
41233;SDS011;26968;42.686;23.352;2022-10-16T08:35:11;16.25;;;10.10;;
41233;SDS011;26968;42.686;23.352;2022-10-16T08:37:37;15.93;;;9.15;;
41233;SDS011;26968;42.686;23.352;2022-10-16T08:40:04;22.08;;;8.55;;
41233;SDS011;26968;42.686;23.352;2022-10-16T08:50:27;16.50;;;7.70;;
41233;SDS011;26968;42.686;23.352;2022-10-16T08:52:54;14.45;;;7.60;;
41233;SDS011;26968;42.686;23.352;2022-10-16T08:58:14;17.67;;;6.30;;
41233;SDS011;26968;42.686;23.352;2022-10-16T09:00:41;15.57;;;6.25;;
41233;SDS011;26968;42.686;23.352;2022-10-16T09:22:47;6.97;;;4.70;;
41233;SDS011;26968;42.686;23.352;2022-10-16T09:25:17;10.68;;;4.80;;
41233;SDS011;26968;42.686;23.352;2022-10-16T09:27:47;9.40;;;5.05;;
41233;SDS011;26968;42.686;23.352;2022-10-16T09:30:17;11.55;;;5.38;;
41233;SDS011;26968;42.686;23.352;2022-10-16T09:32:44;9.65;;;4.78;;
41233;SDS011;26968;42.686;23.352;2022-10-16T09:35:16;12.07;;;5.10;;
41233;SDS011;26968;42.686;23.352;2022-10-16T09:37:45;7.85;;;5.00;;
41233;SDS011;26968;42.686;23.352;2022-10-16T09:40:35;7.93;;;4.65;;
41233;SDS011;26968;42.686;23.352;2022-10-16T09:49:01;9.38;;;4.85;;
41233;SDS011;26968;42.686;23.352;2022-10-16T09:51:22;13.02;;;5.35;;
41233;SDS011;26968;42.686;23.352;2022-10-16T09:53:54;10.05;;;4.57;;
41233;SDS011;26968;42.686;23.352;2022-10-16T09:56:34;8.02;;;4.32;;
41233;SDS011;26968;42.686;23.352;2022-10-16T09:59:02;12.63;;;4.45;;
41233;SDS011;26968;42.686;23.352;2022-10-16T10:01:36;8.90;;;4.25;;
41233;SDS011;26968;42.686;23.352;2022-10-16T10:04:04;7.55;;;3.95;;
41233;SDS011;26968;42.686;23.352;2022-10-16T10:06:34;6.45;;;4.15;;
41233;SDS011;26968;42.686;23.352;2022-10-16T10:11:52;7.90;;;3.33;;
41233;SDS011;26968;42.686;23.352;2022-10-16T10:22:22;9.07;;;3.88;;
41233;SDS011;26968;42.686;23.352;2022-10-16T10:24:54;7.20;;;4.57;;
41233;SDS011;26968;42.686;23.352;2022-10-16T10:27:20;7.18;;;3.42;;
41233;SDS011;26968;42.686;23.352;2022-10-16T10:30:01;6.45;;;4.32;;
41233;SDS011;26968;42.686;23.352;2022-10-16T10:32:35;6.63;;;3.85;;
41233;SDS011;26968;42.686;23.352;2022-10-16T10:35:06;16.60;;;4.35;;
41233;SDS011;26968;42.686;23.352;2022-10-16T10:40:30;10.80;;;3.88;;
41233;SDS011;26968;42.686;23.352;2022-10-16T10:43:09;10.68;;;4.03;;
41233;SDS011;26968;42.686;23.352;2022-10-16T10:45:46;8.80;;;3.90;;
41233;SDS011;26968;42.686;23.352;2022-10-16T10:51:01;6.95;;;3.67;;
41233;SDS011;26968;42.686;23.352;2022-10-16T11:02:11;10.93;;;4.00;;
41233;SDS011;26968;42.686;23.352;2022-10-16T11:07:36;7.85;;;3.75;;
41233;SDS011;26968;42.686;23.352;2022-10-16T11:19:45;10.05;;;3.58;;
41233;SDS011;26968;42.686;23.352;2022-10-16T11:22:18;8.93;;;4.00;;
41233;SDS011;26968;42.686;23.352;2022-10-16T11:30:26;5.45;;;3.53;;
41233;SDS011;26968;42.686;23.352;2022-10-16T11:41:03;5.43;;;3.05;;
41233;SDS011;26968;42.686;23.352;2022-10-16T11:43:40;7.05;;;3.20;;
41233;SDS011;26968;42.686;23.352;2022-10-16T11:46:15;5.57;;;3.30;;
41233;SDS011;26968;42.686;23.352;2022-10-16T11:51:32;5.18;;;2.95;;
41233;SDS011;26968;42.686;23.352;2022-10-16T11:54:04;7.95;;;3.30;;
41233;SDS011;26968;42.686;23.352;2022-10-16T11:56:41;7.97;;;3.40;;
41233;SDS011;26968;42.686;23.352;2022-10-16T11:59:54;7.15;;;2.88;;
41233;SDS011;26968;42.686;23.352;2022-10-16T12:05:12;5.03;;;2.88;;
41233;SDS011;26968;42.686;23.352;2022-10-16T12:07:47;5.57;;;3.05;;
41233;SDS011;26968;42.686;23.352;2022-10-16T12:10:24;7.82;;;3.58;;
41233;SDS011;26968;42.686;23.352;2022-10-16T12:12:52;9.43;;;3.40;;
41233;SDS011;26968;42.686;23.352;2022-10-16T12:15:36;13.65;;;3.53;;
41233;SDS011;26968;42.686;23.352;2022-10-16T12:18:01;5.03;;;2.88;;
41233;SDS011;26968;42.686;23.352;2022-10-16T12:20:33;6.15;;;3.30;;
41233;SDS011;26968;42.686;23.352;2022-10-16T12:23:02;7.60;;;3.60;;
41233;SDS011;26968;42.686;23.352;2022-10-16T12:25:31;8.05;;;3.53;;
41233;SDS011;26968;42.686;23.352;2022-10-16T12:28:19;5.90;;;3.30;;
41233;SDS011;26968;42.686;23.352;2022-10-16T12:30:53;8.85;;;3.35;;
41233;SDS011;26968;42.686;23.352;2022-10-16T12:33:22;12.43;;;3.50;;
41233;SDS011;26968;42.686;23.352;2022-10-16T12:35:52;5.18;;;3.10;;
41233;SDS011;26968;42.686;23.352;2022-10-16T12:38:21;4.53;;;3.17;;
41233;SDS011;26968;42.686;23.352;2022-10-16T12:43:46;7.93;;;2.88;;
41233;SDS011;26968;42.686;23.352;2022-10-16T12:48:39;8.63;;;3.13;;
41233;SDS011;26968;42.686;23.352;2022-10-16T12:51:40;10.18;;;3.20;;
41233;SDS011;26968;42.686;23.352;2022-10-16T12:54:03;7.22;;;3.20;;
41233;SDS011;26968;42.686;23.352;2022-10-16T13:10:23;9.13;;;3.45;;
41233;SDS011;26968;42.686;23.352;2022-10-16T13:15:53;5.35;;;2.92;;
41233;SDS011;26968;42.686;23.352;2022-10-16T13:21:48;6.70;;;3.25;;
41233;SDS011;26968;42.686;23.352;2022-10-16T13:27:32;6.53;;;2.95;;
41233;SDS011;26968;42.686;23.352;2022-10-16T13:30:22;4.72;;;2.90;;
41233;SDS011;26968;42.686;23.352;2022-10-16T13:32:49;5.55;;;3.10;;
41233;SDS011;26968;42.686;23.352;2022-10-16T13:35:26;6.72;;;3.03;;
41233;SDS011;26968;42.686;23.352;2022-10-16T13:38:14;4.75;;;3.15;;
41233;SDS011;26968;42.686;23.352;2022-10-16T13:41:16;8.30;;;2.90;;
41233;SDS011;26968;42.686;23.352;2022-10-16T13:43:41;7.60;;;3.22;;
41233;SDS011;26968;42.686;23.352;2022-10-16T13:46:14;7.30;;;3.55;;
41233;SDS011;26968;42.686;23.352;2022-10-16T13:48:41;9.43;;;3.17;;
41233;SDS011;26968;42.686;23.352;2022-10-16T13:51:17;6.50;;;2.58;;
41233;SDS011;26968;42.686;23.352;2022-10-16T13:53:43;11.15;;;2.90;;
41233;SDS011;26968;42.686;23.352;2022-10-16T13:56:14;4.60;;;2.67;;
41233;SDS011;26968;42.686;23.352;2022-10-16T13:58:42;4.95;;;3.17;;
41233;SDS011;26968;42.686;23.352;2022-10-16T14:01:22;7.25;;;3.33;;
41233;SDS011;26968;42.686;23.352;2022-10-16T14:03:50;12.93;;;3.50;;
41233;SDS011;26968;42.686;23.352;2022-10-16T14:06:17;6.65;;;3.10;;
41233;SDS011;26968;42.686;23.352;2022-10-16T14:08:53;6.65;;;2.95;;
41233;SDS011;26968;42.686;23.352;2022-10-16T14:11:24;4.78;;;2.97;;
41233;SDS011;26968;42.686;23.352;2022-10-16T14:13:50;5.30;;;2.80;;
41233;SDS011;26968;42.686;23.352;2022-10-16T14:16:21;6.20;;;3.00;;
41233;SDS011;26968;42.686;23.352;2022-10-16T14:18:53;5.97;;;2.97;;
41233;SDS011;26968;42.686;23.352;2022-10-16T14:21:25;3.22;;;2.28;;
41233;SDS011;26968;42.686;23.352;2022-10-16T14:23:51;6.00;;;2.92;;
41233;SDS011;26968;42.686;23.352;2022-10-16T14:26:18;6.47;;;2.70;;
41233;SDS011;26968;42.686;23.352;2022-10-16T14:28:46;4.55;;;2.67;;
41233;SDS011;26968;42.686;23.352;2022-10-16T14:33:44;7.88;;;3.05;;
41233;SDS011;26968;42.686;23.352;2022-10-16T14:38:35;9.52;;;3.10;;
41233;SDS011;26968;42.686;23.352;2022-10-16T14:41:01;6.13;;;2.90;;
41233;SDS011;26968;42.686;23.352;2022-10-16T14:45:57;9.23;;;3.22;;
41233;SDS011;26968;42.686;23.352;2022-10-16T14:48:22;4.60;;;3.10;;
41233;SDS011;26968;42.686;23.352;2022-10-16T14:50:49;6.85;;;2.92;;
41233;SDS011;26968;42.686;23.352;2022-10-16T14:53:15;11.32;;;3.33;;
41233;SDS011;26968;42.686;23.352;2022-10-16T14:55:41;7.80;;;3.85;;
41233;SDS011;26968;42.686;23.352;2022-10-16T14:58:28;6.38;;;3.20;;
41233;SDS011;26968;42.686;23.352;2022-10-16T15:00:53;8.18;;;3.30;;
41233;SDS011;26968;42.686;23.352;2022-10-16T15:03:21;10.27;;;3.40;;
41233;SDS011;26968;42.686;23.352;2022-10-16T15:05:47;9.88;;;3.17;;
41233;SDS011;26968;42.686;23.352;2022-10-16T15:08:13;6.63;;;3.38;;
41233;SDS011;26968;42.686;23.352;2022-10-16T15:10:41;11.32;;;3.70;;
41233;SDS011;26968;42.686;23.352;2022-10-16T15:13:12;11.15;;;3.63;;
41233;SDS011;26968;42.686;23.352;2022-10-16T15:15:43;6.03;;;3.08;;
41233;SDS011;26968;42.686;23.352;2022-10-16T15:18:10;8.20;;;3.75;;
41233;SDS011;26968;42.686;23.352;2022-10-16T15:20:36;9.88;;;3.47;;
41233;SDS011;26968;42.686;23.352;2022-10-16T15:23:04;7.93;;;3.20;;
41233;SDS011;26968;42.686;23.352;2022-10-16T15:28:04;8.50;;;3.45;;
41233;SDS011;26968;42.686;23.352;2022-10-16T15:30:30;9.57;;;3.60;;
41233;SDS011;26968;42.686;23.352;2022-10-16T15:32:56;8.35;;;3.47;;
41233;SDS011;26968;42.686;23.352;2022-10-16T15:35:21;8.40;;;3.83;;
41233;SDS011;26968;42.686;23.352;2022-10-16T15:37:47;12.10;;;3.85;;
41233;SDS011;26968;42.686;23.352;2022-10-16T15:40:13;7.95;;;3.85;;
41233;SDS011;26968;42.686;23.352;2022-10-16T15:42:39;9.10;;;3.88;;
41233;SDS011;26968;42.686;23.352;2022-10-16T15:45:05;15.93;;;5.13;;
41233;SDS011;26968;42.686;23.352;2022-10-16T15:47:31;8.15;;;4.43;;
41233;SDS011;26968;42.686;23.352;2022-10-16T15:49:57;8.57;;;4.88;;
41233;SDS011;26968;42.686;23.352;2022-10-16T15:52:22;11.77;;;5.22;;
41233;SDS011;26968;42.686;23.352;2022-10-16T15:54:48;8.48;;;4.30;;
41233;SDS011;26968;42.686;23.352;2022-10-16T15:57:13;8.38;;;4.55;;
41233;SDS011;26968;42.686;23.352;2022-10-16T15:59:39;10.45;;;4.70;;
41233;SDS011;26968;42.686;23.352;2022-10-16T16:02:04;8.02;;;4.38;;
41233;SDS011;26968;42.686;23.352;2022-10-16T16:04:30;13.27;;;5.38;;
41233;SDS011;26968;42.686;23.352;2022-10-16T16:06:56;10.27;;;4.95;;
41233;SDS011;26968;42.686;23.352;2022-10-16T16:09:21;16.80;;;5.80;;
41233;SDS011;26968;42.686;23.352;2022-10-16T16:11:46;9.27;;;4.25;;
41233;SDS011;26968;42.686;23.352;2022-10-16T16:14:15;9.77;;;5.32;;
41233;SDS011;26968;42.686;23.352;2022-10-16T16:16:41;13.32;;;6.03;;
41233;SDS011;26968;42.686;23.352;2022-10-16T16:19:07;13.18;;;5.60;;
41233;SDS011;26968;42.686;23.352;2022-10-16T16:21:34;11.90;;;5.72;;
41233;SDS011;26968;42.686;23.352;2022-10-16T16:23:59;22.05;;;5.43;;
41233;SDS011;26968;42.686;23.352;2022-10-16T16:26:28;9.57;;;5.28;;
41233;SDS011;26968;42.686;23.352;2022-10-16T16:29:00;14.88;;;6.00;;
41233;SDS011;26968;42.686;23.352;2022-10-16T16:31:27;12.52;;;6.50;;
41233;SDS011;26968;42.686;23.352;2022-10-16T16:33:53;13.27;;;5.65;;
41233;SDS011;26968;42.686;23.352;2022-10-16T16:36:19;21.17;;;5.90;;
41233;SDS011;26968;42.686;23.352;2022-10-16T16:38:45;10.45;;;5.45;;
41233;SDS011;26968;42.686;23.352;2022-10-16T16:41:19;18.25;;;5.53;;
41233;SDS011;26968;42.686;23.352;2022-10-16T16:43:47;10.32;;;5.75;;
41233;SDS011;26968;42.686;23.352;2022-10-16T16:46:12;13.80;;;5.88;;
41233;SDS011;26968;42.686;23.352;2022-10-16T16:48:39;18.50;;;6.43;;
41233;SDS011;26968;42.686;23.352;2022-10-16T16:51:05;14.38;;;6.55;;